ADDS METAR Data INFO
IDs: Format: Raw Decoded Include TAF

Data at: 1427 UTC 20 Sep 2017

KT65 201415Z AUTO 18012G15KT 10SM SCT017 29/24 A2989 RMK AO2 T02910242
KT65 201355Z AUTO 18007KT 7SM CLR 28/24 A2989 RMK AO2 T02820243
KT65 201335Z AUTO 15005KT 10SM CLR 27/24 A2989 RMK AO2 T02720242
KT65 201315Z AUTO 16006KT 10SM CLR 27/24 A2988 RMK AO2 T02680240
KT65 201255Z AUTO 15004KT 7SM CLR 26/24 A2987 RMK AO2 T02620238
KT65 201235Z AUTO 15006KT 10SM CLR 26/24 A2987 RMK AO2 T02600237
KT65 201215Z AUTO 17004KT 7SM CLR 26/24 A2987 RMK AO2 T02610237
KT65 201155Z AUTO 17005KT 10SM CLR 26/24 A2986 RMK AO2 T02600237 10272 20260
KT65 201135Z AUTO 17005KT 10SM CLR 26/24 A2986 RMK AO2 T02610237
KT65 201115Z AUTO 15005KT 10SM CLR 26/24 A2985 RMK AO2 T02600237
KT65 201055Z AUTO 16004KT 10SM CLR 26/24 A2985 RMK AO2 T02620237
KT65 201035Z AUTO 16005KT 10SM CLR 26/24 A2984 RMK AO2 T02620238
KT65 201015Z AUTO 15006KT 10SM CLR 26/24 A2984 RMK AO2 T02620238
KT65 200955Z AUTO 16005KT 10SM CLR 27/24 A2984 RMK AO2 T02650238
KT65 200935Z AUTO 16007KT 10SM CLR 27/24 A2984 RMK AO2 T02660240
KT65 200915Z AUTO 16007KT 10SM CLR 27/24 A2984 RMK AO2 T02670240
KT65 200855Z AUTO 17006KT 10SM CLR 27/24 A2985 RMK AO2 T02670239
KT65 200835Z AUTO 17008KT 10SM CLR 27/24 A2985 RMK AO2 T02680240
KT65 200815Z AUTO 17011KT 10SM CLR 27/24 A2985 RMK AO2 T02690241
KT65 200755Z AUTO 18009KT 10SM CLR 27/24 A2986 RMK AO2 T02680241
KT65 200735Z AUTO 17008KT 10SM CLR 27/24 A2986 RMK AO2 T02680242
KT65 200715Z AUTO 17007KT 10SM CLR 27/24 A2986 RMK AO2 T02700242
KT65 200655Z AUTO 17008KT 10SM SCT017 27/24 A2986 RMK AO2 T02700242
KT65 200635Z AUTO 17009KT 10SM BKN017 27/24 A2986 RMK AO2 T02710243
KT65 200615Z AUTO 17009KT 10SM BKN017 27/24 A2986 RMK AO2 T02710244
KT65 200555Z AUTO 16008G15KT 10SM SCT017 27/25 A2986 RMK AO2 T02720245 10322 20272 403650256
KT65 200535Z AUTO 16010KT 10SM CLR 27/25 A2986 RMK AO2 T02730245
KT65 200515Z AUTO 16009KT 7SM CLR 27/25 A2986 RMK AO2 T02740245
KT65 200455Z AUTO 16010G15KT 10SM CLR 28/25 A2986 RMK AO2 T02750245
KT65 200435Z AUTO 16010G16KT 10SM CLR 28/25 A2986 RMK AO2 T02760245
KT65 200415Z AUTO 15008KT 10SM CLR 28/25 A2987 RMK AO2 T02770245
KT65 200355Z AUTO 14009G15KT 10SM CLR 28/25 A2987 RMK AO2 T02800245
KT65 200335Z AUTO 15007G14KT 10SM CLR 28/25 A2988 RMK AO2 T02800245
KT65 200315Z AUTO 15008KT 10SM CLR 28/24 A2987 RMK AO2 T02820243
KT65 200255Z AUTO 15006KT 10SM CLR 28/24 A2987 RMK AO2 T02840243
KT65 200235Z AUTO 15008G15KT 10SM CLR 29/24 A2986 RMK AO2 T02860240
KT65 200215Z AUTO 15008KT 10SM CLR 29/24 A2986 RMK AO2 T02900237
KT65 200155Z AUTO 15009KT 10SM CLR 29/24 A2985 RMK AO2 T02920235
KT65 200135Z AUTO 15011G16KT 10SM CLR 30/23 A2983 RMK AO2 T02960234
KT65 200115Z AUTO 14008G14KT 10SM CLR 30/24 A2982 RMK AO2 T03000235
KT65 200055Z AUTO 15012G16KT 10SM CLR 31/23 A2981 RMK AO2 T03050226
KT65 200035Z AUTO 14008G17KT 10SM CLR 31/23 A2980 RMK AO2 T03090225
KT65 200015Z AUTO 15011G19KT 10SM CLR 32/23 A2980 RMK AO2 T03160225
KT65 192355Z AUTO 15015G21KT 10SM CLR 32/23 A2979 RMK AO2 T03240225 10365 20324
KT65 192335Z AUTO 15014G17KT 10SM SCT046 33/22 A2979 RMK AO2 T03300219
KT65 192315Z AUTO 14012G17KT 10SM SCT046 34/22 A2979 RMK AO2 T03390223
KT65 192255Z AUTO 17010KT 10SM CLR 34/22 A2979 RMK AO2 T03430215
KT65 192235Z AUTO 16011KT 10SM SCT050 35/22 A2979 RMK AO2 T03450217
KT65 192215Z AUTO 17011G21KT 10SM SCT050 35/22 A2979 RMK AO2 LTG DSNT SW T03500219
KT65 192155Z AUTO 16015G21KT 10SM SCT050 36/22 A2979 RMK AO2 T03570220
KT65 192135Z AUTO 16013G18KT 10SM SCT050 SCT070 35/22 A2979 RMK AO2 T03510218
KT65 192115Z AUTO 15012G16KT 10SM SCT050 36/22 A2979 RMK AO2 T03620220
KT65 192055Z AUTO 17016G20KT 10SM SCT050 36/22 A2980 RMK AO2 T03600222
KT65 192035Z AUTO 16013G19KT 10SM SCT050 36/22 A2980 RMK AO2 T03590219
KT65 192015Z AUTO 18013G22KT 10SM CLR 36/22 A2981 RMK AO2 T03580219
KT65 191955Z AUTO 17013G17KT 10SM SCT048 SCT060 SCT075 35/22 A2983 RMK AO2 T03530220
KT65 191935Z AUTO 17014G19KT 10SM SCT050 SCT055 SCT075 36/22 A2983 RMK AO2 T03590221
KT65 191915Z AUTO 15012G20KT 10SM SCT048 SCT065 SCT080 36/22 A2984 RMK AO2 T03600224
KT65 191855Z AUTO 14012G20KT 10SM SCT048 SCT055 SCT080 35/22 A2986 RMK AO2 T03450222
KT65 191830Z AUTO 16010G19KT 10SM SCT048 BKN055 BKN070 36/22 A2986 RMK AO2 T03550221
KT65 191815Z AUTO 15010G19KT 10SM SCT048 SCT055 BKN095 35/22 A2987 RMK AO2 T03500221
KT65 191755Z AUTO 18012G17KT 10SM SCT046 35/22 A2988 RMK AO2 T03520221 10354 20256
KT65 191735Z AUTO 18011G16KT 10SM SCT042 BKN050 BKN065 35/23 A2989 RMK AO2 T03460226
KT65 191715Z AUTO 17009G18KT 10SM SCT040 BKN046 BKN050 34/22 A2991 RMK AO2 T03390223
KT65 191655Z AUTO 19012G15KT 10SM BKN038 BKN045 34/23 A2991 RMK AO2 T03360225
KT65 191635Z AUTO 20010G16KT 10SM SCT036 SCT044 33/23 A2992 RMK AO2 T03280228
KT65 191615Z AUTO 17011G17KT 10SM CLR 33/23 A2992 RMK AO2 T03300228
KT65 191555Z AUTO 19012G15KT 10SM CLR 32/23 A2993 RMK AO2 T03240227
KT65 191535Z AUTO 18011G16KT 10SM SCT020 SCT027 SCT035 32/23 A2993 RMK AO2 T03170228
KT65 191515Z AUTO 19011G16KT 10SM SCT020 BKN027 BKN035 31/24 A2992 RMK AO2 T03080243
KT65 191455Z AUTO 17010KT 10SM BKN018 OVC025 30/25 A2992 RMK AO2 T03030245
KT65 191435Z AUTO 18008KT 10SM BKN014 BKN025 30/25 A2992 RMK AO2 T02980248
KT65 191415Z AUTO 17008KT 10SM SCT014 SCT019 29/25 A2992 RMK AO2 T02890250
KT65 191355Z AUTO 17007KT 7SM SCT014 SCT019 SCT026 28/25 A2992 RMK AO2 T02810249
KT65 191335Z AUTO 17005KT 7SM SCT014 BKN024 27/25 A2991 RMK AO2 T02720247
KT65 191315Z AUTO 15005KT 7SM CLR 27/25 A2991 RMK AO2 T02660245
KT65 191255Z AUTO 15004KT 7SM CLR 26/24 A2991 RMK AO2 T02600242
KT65 191235Z AUTO 16003KT 7SM CLR 26/24 A2990 RMK AO2 T02570242
KT65 191215Z AUTO 17004KT 7SM CLR 26/24 A2990 RMK AO2 T02560241
KT65 191155Z AUTO 17006KT 7SM CLR 26/24 A2989 RMK AO2 T02570241 10271 20257
KT65 191135Z AUTO 17006KT 10SM SCT014 26/24 A2989 RMK AO2 T02580242
KT65 191115Z AUTO 17007KT 7SM CLR 26/24 A2989 RMK AO2 T02570241
KT65 191055Z AUTO 17005KT 7SM CLR 26/24 A2989 RMK AO2 T02570242
KT65 191035Z AUTO 19004KT 7SM CLR 26/24 A2989 RMK AO2 T02580242
KT65 191015Z AUTO 17004KT 10SM CLR 26/24 A2989 RMK AO2 T02600242
KT65 190955Z AUTO 17006KT 10SM CLR 26/24 A2989 RMK AO2 T02610244
KT65 190935Z AUTO 17005KT 10SM CLR 26/25 A2988 RMK AO2 T02620245
KT65 190915Z AUTO 16007KT 10SM CLR 26/25 A2989 RMK AO2 T02640245
KT65 190855Z AUTO 15005KT 7SM CLR 27/25 A2989 RMK AO2 T02650245
KT65 190835Z AUTO 17007KT 10SM CLR 27/25 A2989 RMK AO2 T02650246
KT65 190815Z AUTO 16006KT 10SM CLR 27/25 A2989 RMK AO2 T02660246
KT65 190755Z AUTO 16008KT 10SM CLR 27/25 A2990 RMK AO2 T02670246
KT65 190735Z AUTO 16007KT 10SM CLR 27/25 A2991 RMK AO2 T02680247
KT65 190715Z AUTO 16007KT 10SM CLR 27/25 A2991 RMK AO2 T02700247
KT65 190655Z AUTO 15005KT 10SM CLR 27/25 A2991 RMK AO2 T02700246
KT65 190635Z AUTO 15008KT 10SM CLR 27/25 A2991 RMK AO2 T02700247
KT65 190615Z AUTO 14005KT 7SM SCT015 27/25 A2991 RMK AO2 T02710247
KT65 190555Z AUTO 15007KT 10SM SCT015 27/25 A2991 RMK AO2 T02710246 10322 20271 403650257
KT65 190535Z AUTO 14005KT 7SM SCT013 27/25 A2991 RMK AO2 T02720246
KT65 190515Z AUTO 14007KT 10SM SCT013 SCT019 27/25 A2991 RMK AO2 T02720245
KT65 190455Z AUTO 16008KT 10SM SCT015 27/25 A2991 RMK AO2 T02730245
KT65 190435Z AUTO 15006KT 10SM CLR 28/25 A2992 RMK AO2 T02750245
KT65 190415Z AUTO 15006KT 10SM SCT014 28/25 A2991 RMK AO2 T02760245
KT65 190355Z AUTO 15006KT 10SM SCT014 28/25 A2991 RMK AO2 T02770245
KT65 190335Z AUTO 16009KT 10SM CLR 28/24 A2991 RMK AO2 T02780243
KT65 190315Z AUTO 15007KT 10SM CLR 28/24 A2991 RMK AO2 T02800240
KT65 190255Z AUTO 15007KT 10SM CLR 28/24 A2990 RMK AO2 T02820235
KT65 190235Z AUTO 15007KT 10SM CLR 29/23 A2989 RMK AO2 T02850232